| time (UTC) | temp F | wind direction | speed MPH | gust MPH | rain 1hr in | rain 24hr in | rain mn in | humidity % | barometer mb |
| 20260509003115 | 50 | 124 | 0.0 | 0.0 | 0.00 | 0.00 | 0.00 | 61 | 1018.9 |
| 20260509000115 | 50 | 124 | 0.0 | 0.0 | 0.00 | 0.00 | 0.00 | 60 | 1018.9 |
| 20260508233115 | 50 | 124 | 0.0 | 0.0 | 0.00 | 0.00 | 0.00 | 59 | 1018.8 |
| 20260508230115 | 50 | 124 | 0.0 | 0.0 | 0.00 | 0.00 | 0.00 | 58 | 1018.8 |
| 20260508223115 | 50 | 130 | 0.0 | 0.0 | 0.00 | 0.00 | 0.00 | 57 | 1018.8 |
| 20260508220115 | 50 | 130 | 0.0 | 0.0 | 0.00 | 0.00 | 0.00 | 55 | 1018.8 |
| 20260508213115 | 51 | 130 | 0.0 | 0.0 | 0.00 | 0.00 | 0.00 | 54 | 1018.8 |
| 20260508210115 | 51 | 130 | 0.0 | 0.0 | 0.00 | 0.00 | 0.00 | 53 | 1018.8 |
| 20260508200115 | 51 | 130 | 0.0 | 0.0 | 0.00 | 0.00 | 0.00 | 50 | 1018.8 |
| 20260508193115 | 52 | 135 | 2.0 | 4.0 | 0.00 | 0.00 | 0.00 | 50 | 1017.8 |
| 20260508190115 | 52 | 135 | 0.0 | 0.0 | 0.00 | 0.00 | 0.00 | 48 | 1017.8 |
| 20260508183115 | 53 | 135 | 0.0 | 2.0 | 0.00 | 0.00 | 0.00 | 46 | 1017.8 |
| 20260508180136 | 53 | 118 | 0.0 | 0.0 | 0.00 | 0.00 | 0.00 | 46 | 1017.8 |
| 20260508173115 | 53 | 122 | 0.0 | 3.0 | 0.00 | 0.00 | 0.00 | 44 | 1017.8 |
| 20260508170134 | 53 | 122 | 0.0 | 0.0 | 0.00 | 0.00 | 0.00 | 43 | 1017.8 |
| 20260508163115 | 54 | 108 | 0.0 | 4.0 | 0.00 | 0.00 | 0.00 | 42 | 1017.7 |
| 20260508160115 | 54 | 139 | 3.0 | 4.0 | 0.00 | 0.00 | 0.00 | 40 | 1017.7 |
| 20260508153115 | 55 | 149 | 0.0 | 6.0 | 0.00 | 0.00 | 0.00 | 39 | 1017.7 |
| 20260508150115 | 55 | 157 | 3.0 | 6.0 | 0.00 | 0.00 | 0.00 | 39 | 1017.7 |
| 20260508143115 | 56 | 163 | 3.0 | 6.0 | 0.00 | 0.00 | 0.00 | 36 | 1017.7 |
| 20260508133115 | 57 | 74 | 3.0 | 6.0 | 0.00 | 0.01 | 0.00 | 36 | 1017.7 |
| 20260508130114 | 57 | 151 | 3.0 | 4.0 | 0.00 | 0.01 | 0.00 | 36 | 1017.7 |
| 20260508123114 | 55 | 133 | 3.0 | 5.0 | 0.00 | 0.01 | 0.00 | 40 | 1017.7 |
| 20260508120114 | 55 | 116 | 3.0 | 6.0 | 0.00 | 0.01 | 0.00 | 39 | 1017.7 |
| 20260508113114 | 55 | 134 | 4.0 | 6.0 | 0.00 | 0.01 | 0.00 | 39 | 1017.7 |
| 20260508110115 | 55 | 85 | 0.0 | 4.0 | 0.00 | 0.01 | 0.00 | 38 | 1017.7 |
| 20260508103114 | 56 | 350 | 5.0 | 6.0 | 0.00 | 0.01 | 0.00 | 36 | 1017.7 |
| 20260508093114 | 56 | 219 | 3.0 | 4.0 | 0.00 | 0.01 | 0.00 | 39 | 1017.7 |
| 20260508090114 | 56 | 122 | 2.0 | 4.0 | 0.00 | 0.01 | 0.00 | 44 | 1017.7 |
| 20260508083114 | 53 | 98 | 0.0 | 4.0 | 0.00 | 0.01 | 0.00 | 47 | 1017.8 |
| 20260508080114 | 51 | 207 | 5.0 | 6.0 | 0.00 | 0.01 | 0.00 | 53 | 1017.8 |
| 20260508073114 | 50 | 176 | 4.0 | 5.0 | 0.00 | 0.01 | 0.00 | 57 | 1017.8 |
| 20260508070114 | 47 | 129 | 3.0 | 4.0 | 0.00 | 0.01 | 0.00 | 72 | 1017.9 |
| 20260508063114 | 45 | 47 | 0.0 | 4.0 | 0.00 | 0.01 | 0.00 | 79 | 1017.9 |
| 20260508060133 | 43 | 95 | 2.0 | 5.0 | 0.00 | 0.01 | 0.00 | 79 | 1017.0 |
| 20260508053114 | 42 | 90 | 2.0 | 6.0 | 0.00 | 0.03 | 0.00 | 78 | 1017.0 |
| 20260508043114 | 40 | 56 | 2.0 | 4.0 | 0.00 | 0.03 | 0.00 | 77 | 1017.1 |
| 20260508040114 | 40 | 44 | 3.0 | 5.0 | 0.00 | 0.03 | 0.00 | 76 | 1017.1 |
| 20260508030114 | 40 | 218 | 0.0 | 0.0 | 0.00 | 0.05 | 0.00 | 74 | 1017.1 |
| 20260508023114 | 40 | 218 | 0.0 | 0.0 | 0.00 | 0.09 | 0.00 | 73 | 1017.1 |
| 20260508020114 | 41 | 218 | 0.0 | 0.0 | 0.00 | 0.09 | 0.00 | 72 | 1017.0 |
| 20260508013114 | 41 | 296 | 0.0 | 0.0 | 0.00 | 0.14 | 0.00 | 72 | 1017.0 |
| 20260508010114 | 42 | 296 | 0.0 | 0.0 | 0.00 | 0.14 | 0.00 | 71 | 1017.0 |